createdAt,value
2018-02-05T00:00:11.283Z,9.50
2018-02-05T00:02:38.764Z,9.83
2018-02-05T00:05:07.027Z,9.27
2018-02-05T00:07:34.506Z,10.80
2018-02-05T00:10:02.002Z,11.20
2018-02-05T00:12:31.254Z,10.03
2018-02-05T00:14:58.761Z,10.70
2018-02-05T00:17:26.247Z,11.10
2018-02-05T00:19:53.739Z,9.80
2018-02-05T00:22:21.220Z,10.63
2018-02-05T00:24:48.724Z,11.10
2018-02-05T00:27:16.211Z,10.63
2018-02-05T00:29:43.758Z,10.57
2018-02-05T00:32:11.203Z,11.53
2018-02-05T00:34:38.699Z,9.73
2018-02-05T00:37:06.177Z,9.93
2018-02-05T00:39:33.673Z,10.93
2018-02-05T00:42:01.918Z,10.43
2018-02-05T00:44:29.422Z,11.17
2018-02-05T00:46:56.898Z,9.87
2018-02-05T00:49:24.401Z,10.97
2018-02-05T00:51:51.882Z,10.20
2018-02-05T00:54:19.383Z,10.43
2018-02-05T00:56:46.865Z,10.60
2018-02-05T00:59:14.358Z,11.50
2018-02-05T01:01:42.603Z,11.20
2018-02-05T01:04:10.098Z,12.27
2018-02-05T01:06:37.575Z,10.87
2018-02-05T01:09:05.074Z,11.07
2018-02-05T01:11:32.553Z,10.33
2018-02-05T01:14:00.056Z,11.90
2018-02-05T01:16:27.540Z,11.70
2018-02-05T01:18:55.047Z,10.93
2018-02-05T01:21:23.295Z,10.80
2018-02-05T01:23:50.800Z,9.53
2018-02-05T01:26:19.054Z,11.07
2018-02-05T01:28:46.545Z,11.60
2018-02-05T01:31:14.819Z,11.63
2018-02-05T01:33:42.294Z,10.37
2018-02-05T01:36:09.793Z,11.53
2018-02-05T01:38:38.030Z,10.70
2018-02-05T01:41:05.531Z,11.57
2018-02-05T01:43:33.007Z,10.03
2018-02-05T01:46:01.284Z,10.93
2018-02-05T01:48:28.771Z,9.63
2018-02-05T01:50:57.035Z,11.13
2018-02-05T01:53:24.523Z,11.13
2018-02-05T01:55:52.783Z,10.53
2018-02-05T01:58:20.268Z,10.43
2018-02-05T02:00:47.767Z,11.37
2018-02-05T02:03:16.012Z,10.93
2018-02-05T02:05:43.511Z,9.97
2018-02-05T02:08:11.755Z,12.13
2018-02-05T02:10:39.256Z,10.40
2018-02-05T02:13:06.739Z,11.00
2018-02-05T02:15:35.002Z,10.97
2018-02-05T02:18:02.482Z,10.90
2018-02-05T02:20:29.987Z,10.43
2018-02-05T02:22:57.467Z,11.00
2018-02-05T02:25:24.963Z,9.63
2018-02-05T02:27:52.434Z,10.87
2018-02-05T02:30:19.930Z,11.17
2018-02-05T02:32:47.419Z,11.70
2018-02-05T02:35:15.687Z,10.60
2018-02-05T02:37:43.180Z,10.37
2018-02-05T02:40:11.447Z,10.30
2018-02-05T02:42:38.934Z,11.23
2018-02-05T02:45:14.936Z,11.20
2018-02-05T02:47:42.416Z,11.93
2018-02-05T02:50:09.930Z,11.00
2018-02-05T02:52:37.415Z,11.40
2018-02-05T02:55:05.688Z,10.80
2018-02-05T02:57:33.166Z,11.70
2018-02-05T03:00:01.432Z,11.47
2018-02-05T03:02:28.911Z,10.00
2018-02-05T03:04:56.411Z,10.27
2018-02-05T03:07:24.658Z,10.23
2018-02-05T03:09:52.158Z,11.53
2018-02-05T03:12:20.406Z,11.30
2018-02-05T03:14:47.897Z,10.50
2018-02-05T03:17:15.394Z,10.07
2018-02-05T03:19:43.660Z,11.37
2018-02-05T03:22:11.175Z,9.87
2018-02-05T03:24:38.655Z,11.70
2018-02-05T03:27:06.158Z,11.93
2018-02-05T03:29:33.638Z,11.40
2018-02-05T03:32:01.139Z,10.20
2018-02-05T03:34:29.386Z,10.60
2018-02-05T03:36:56.883Z,10.90
2018-02-05T03:39:25.122Z,11.03
2018-02-05T03:41:52.622Z,11.70
2018-02-05T03:44:20.103Z,12.23
2018-02-05T03:46:47.600Z,11.20
2018-02-05T03:49:15.077Z,10.50
2018-02-05T03:51:42.574Z,11.53
2018-02-05T03:54:10.050Z,10.10
2018-02-05T03:56:37.560Z,10.73
2018-02-05T03:59:05.049Z,11.07
2018-02-05T04:01:32.548Z,10.70
2018-02-05T04:04:00.065Z,10.73
2018-02-05T04:06:27.544Z,11.70
2018-02-05T04:08:55.812Z,12.20
2018-02-05T04:11:23.297Z,11.83
2018-02-05T04:13:51.558Z,11.47
2018-02-05T04:16:19.039Z,10.87
2018-02-05T04:18:46.539Z,10.60
2018-02-05T04:21:14.031Z,11.00
2018-02-05T04:23:41.596Z,9.90
2018-02-05T04:26:09.116Z,10.70
2018-02-05T04:28:36.619Z,10.67
2018-02-05T04:31:04.873Z,11.30
2018-02-05T04:33:32.370Z,10.47
2018-02-05T04:36:00.620Z,9.83
2018-02-05T04:38:28.112Z,10.47
2018-02-05T04:40:55.591Z,10.80
2018-02-05T04:43:23.851Z,9.73
2018-02-05T04:45:51.330Z,11.00
2018-02-05T04:48:18.835Z,10.47
2018-02-05T04:50:47.087Z,10.33
2018-02-05T04:53:14.563Z,10.57
2018-02-05T04:55:42.071Z,11.60
2018-02-05T04:58:09.556Z,11.43
2018-02-05T05:00:37.060Z,11.07
2018-02-05T05:03:04.542Z,10.43
2018-02-05T05:05:32.043Z,10.33
2018-02-05T05:08:00.294Z,11.30
2018-02-05T05:10:27.787Z,11.50
2018-02-05T05:12:56.032Z,11.00
2018-02-05T05:15:23.526Z,10.93
2018-02-05T05:17:51.015Z,11.57
2018-02-05T05:20:19.288Z,12.20
2018-02-05T05:22:46.783Z,13.50
2018-02-05T05:25:15.050Z,13.50
2018-02-05T05:27:42.530Z,13.43
2018-02-05T05:30:10.790Z,12.20
2018-02-05T05:32:38.268Z,11.97
2018-02-05T05:35:05.766Z,11.07
2018-02-05T05:37:34.007Z,11.53
2018-02-05T05:40:01.503Z,10.80
2018-02-05T05:42:28.983Z,10.70
2018-02-05T05:44:56.460Z,11.90
2018-02-05T05:47:24.725Z,11.77
2018-02-05T05:49:52.198Z,12.47
2018-02-05T05:52:19.704Z,12.00
2018-02-05T05:54:47.946Z,11.20
2018-02-05T05:57:15.447Z,13.67
2018-02-05T05:59:43.686Z,13.17
2018-02-05T06:02:11.195Z,12.07
2018-02-05T06:04:38.676Z,12.03
2018-02-05T06:07:06.949Z,12.77
2018-02-05T06:09:34.432Z,11.83
2018-02-05T06:12:02.702Z,11.17
2018-02-05T06:14:30.189Z,11.60
2018-02-05T06:16:58.459Z,12.50
2018-02-05T06:19:25.936Z,12.40
2018-02-05T06:21:53.427Z,11.30
2018-02-05T06:24:21.675Z,12.43
2018-02-05T06:26:49.171Z,11.77
2018-02-05T06:29:16.651Z,14.20
2018-02-05T06:31:44.919Z,12.90
2018-02-05T06:34:12.411Z,14.07
2018-02-05T06:36:39.910Z,13.20
2018-02-05T06:39:07.386Z,13.83
2018-02-05T06:41:38.555Z,12.20
2018-02-05T06:44:06.111Z,13.93
2018-02-05T06:46:33.611Z,11.50
2018-02-05T06:49:01.096Z,11.97
2018-02-05T06:54:46.002Z,11.43
2018-02-05T06:57:13.512Z,14.33
2018-02-05T06:59:40.991Z,11.30
2018-02-05T07:02:10.446Z,12.13
2018-02-05T07:04:38.043Z,13.97
2018-02-05T07:09:51.946Z,13.73
2018-02-05T07:12:20.207Z,12.60
2018-02-05T07:14:47.698Z,13.07
2018-02-05T07:17:15.978Z,12.30
2018-02-05T07:19:43.459Z,12.90
2018-02-05T07:22:11.719Z,11.27
2018-02-05T07:24:39.195Z,11.20
2018-02-05T07:27:06.704Z,13.43
2018-02-05T07:29:34.183Z,12.93
2018-02-05T07:32:01.678Z,11.90
2018-02-05T07:34:29.175Z,12.80
2018-02-05T07:36:56.666Z,13.20
2018-02-05T07:39:24.911Z,13.13
2018-02-05T07:41:52.410Z,12.53
2018-02-05T07:44:19.882Z,13.53
2018-02-05T07:46:47.382Z,13.60
2018-02-05T07:49:14.873Z,15.97
2018-02-05T07:51:42.388Z,17.47
2018-02-05T07:54:09.863Z,14.60
2018-02-05T07:56:37.359Z,15.10
2018-02-05T07:59:05.655Z,14.23
2018-02-05T08:01:33.162Z,11.30
2018-02-05T08:04:00.645Z,13.83
2018-02-05T08:06:28.139Z,12.60
2018-02-05T08:08:56.383Z,11.60
2018-02-05T08:11:23.883Z,11.47
2018-02-05T08:13:51.368Z,11.93
2018-02-05T08:16:19.636Z,11.63
2018-02-05T08:18:47.118Z,13.20
2018-02-05T08:21:14.647Z,13.20
2018-02-05T08:23:42.228Z,13.70
2018-02-05T08:26:09.718Z,21.93
2018-02-05T08:28:37.342Z,15.60
2018-02-05T08:31:04.879Z,12.20
2018-02-05T08:33:32.471Z,11.77
2018-02-05T08:35:59.959Z,11.30
2018-02-05T08:38:27.464Z,12.47
2018-02-05T08:40:54.946Z,13.93
2018-02-05T08:43:22.455Z,14.30
2018-02-05T08:45:50.927Z,11.50
2018-02-05T08:48:18.448Z,12.30
2018-02-05T08:50:45.927Z,12.50
2018-02-05T08:53:13.436Z,16.80
2018-02-05T08:55:40.926Z,20.10
2018-02-05T08:58:09.205Z,12.90
2018-02-05T09:00:37.451Z,11.53
2018-02-05T09:03:04.954Z,11.33
2018-02-05T09:05:33.203Z,12.63
2018-02-05T09:08:00.702Z,11.53
2018-02-05T09:10:28.188Z,11.30
2018-02-05T09:12:56.464Z,12.70
2018-02-05T09:15:24.320Z,11.00
2018-02-05T09:17:51.831Z,11.43
2018-02-05T09:20:20.083Z,11.77
2018-02-05T09:22:47.591Z,12.60
2018-02-05T09:25:15.843Z,11.63
2018-02-05T09:27:43.351Z,11.37
2018-02-05T09:30:10.827Z,11.37
2018-02-05T09:32:38.336Z,10.97
2018-02-05T09:35:05.902Z,11.23
2018-02-05T09:37:33.409Z,9.73
2018-02-05T09:40:00.910Z,10.13
2018-02-05T09:42:28.416Z,10.80
2018-02-05T09:44:55.904Z,10.00
2018-02-05T09:47:47.980Z,9.93
2018-02-05T09:50:16.228Z,10.87
2018-02-05T09:52:43.722Z,10.10
2018-02-05T09:55:11.204Z,9.27
2018-02-05T09:57:39.466Z,9.07
2018-02-05T10:00:06.954Z,9.97
2018-02-05T10:02:35.214Z,8.93
2018-02-05T10:05:02.702Z,10.20
2018-02-05T10:07:30.201Z,9.20
2018-02-05T10:09:58.456Z,8.50
2018-02-05T10:12:25.955Z,9.77
2018-02-05T10:14:54.198Z,8.93
2018-02-05T10:17:21.699Z,9.10
2018-02-05T10:19:49.259Z,9.30
2018-02-05T10:22:16.751Z,8.10
2018-02-05T10:24:45.396Z,8.00
2018-02-05T10:27:12.901Z,8.53
2018-02-05T10:29:40.392Z,8.10
2018-02-05T10:32:08.659Z,7.70
2018-02-05T10:34:36.147Z,7.40
2018-02-05T10:37:04.412Z,7.00
2018-02-05T10:39:31.903Z,7.00
2018-02-05T10:41:59.475Z,7.07
2018-02-05T10:44:27.727Z,6.23
2018-02-05T10:46:55.228Z,6.73
2018-02-05T10:49:22.708Z,6.10
2018-02-05T10:51:50.234Z,7.33
2018-02-05T10:54:17.712Z,6.33
2018-02-05T10:56:45.316Z,6.60
2018-02-05T10:59:13.584Z,6.90
2018-02-05T11:01:41.104Z,7.17
2018-02-05T11:04:08.589Z,7.80
2018-02-05T11:06:36.110Z,7.23
2018-02-05T11:09:04.435Z,7.80
2018-02-05T11:11:31.951Z,6.47
2018-02-05T11:13:59.455Z,7.30
2018-02-05T11:16:28.100Z,6.83
2018-02-05T11:18:55.607Z,6.70
2018-02-05T11:21:23.949Z,8.17
2018-02-05T11:23:51.466Z,5.77
2018-02-05T11:26:18.965Z,6.53
2018-02-05T11:28:46.458Z,6.33
2018-02-05T11:31:13.973Z,6.60
2018-02-05T11:33:41.463Z,6.30
2018-02-05T11:36:09.714Z,6.80
2018-02-05T11:38:37.211Z,5.53
2018-02-05T11:41:05.463Z,5.13
2018-02-05T11:43:32.950Z,5.70
2018-02-05T11:46:00.432Z,6.20
2018-02-05T11:48:27.949Z,5.07
2018-02-05T11:50:56.182Z,4.70
2018-02-05T11:53:23.938Z,3.83
2018-02-05T11:55:51.410Z,4.63
2018-02-05T11:58:18.906Z,4.10
2018-02-05T12:00:46.384Z,4.57
2018-02-05T12:03:14.651Z,3.73
2018-02-05T12:05:42.135Z,4.47
2018-02-05T12:08:10.408Z,3.80
2018-02-05T12:10:37.886Z,4.60
2018-02-05T12:13:06.155Z,3.53
2018-02-05T12:15:33.634Z,5.30
2018-02-05T12:18:01.123Z,5.13
2018-02-05T12:20:29.375Z,5.07
2018-02-05T12:22:56.871Z,5.60
2018-02-05T12:25:24.352Z,5.20
2018-02-05T12:27:51.873Z,4.13
2018-02-05T12:30:19.348Z,4.53
2018-02-05T12:32:46.836Z,4.17
2018-02-05T12:35:15.139Z,4.93
2018-02-05T12:37:42.644Z,4.17
2018-02-05T12:40:10.891Z,3.63
2018-02-05T12:42:38.380Z,4.00
2018-02-05T12:45:06.629Z,3.77
2018-02-05T12:47:34.118Z,4.40
2018-02-05T12:50:01.599Z,3.23
2018-02-05T12:52:29.091Z,4.30
2018-02-05T12:54:57.350Z,4.40
2018-02-05T12:57:24.866Z,4.00
2018-02-05T12:59:55.138Z,3.47
2018-02-05T13:05:28.983Z,3.90
2018-02-05T13:07:56.491Z,3.60
2018-02-05T13:10:24.738Z,4.10
2018-02-05T13:12:52.276Z,3.67
2018-02-05T13:15:19.758Z,3.63
2018-02-05T13:17:47.270Z,3.97
2018-02-05T13:20:14.758Z,4.03
2018-02-05T13:22:42.369Z,3.93
2018-02-05T13:25:09.857Z,4.00
2018-02-05T13:27:37.354Z,3.97
2018-02-05T13:30:04.842Z,4.90
2018-02-05T13:32:32.378Z,4.60
2018-02-05T13:34:59.870Z,6.63
2018-02-05T13:37:27.359Z,5.60
2018-02-05T13:39:54.835Z,4.60
2018-02-05T13:42:23.095Z,4.63
2018-02-05T13:44:50.567Z,5.33
2018-02-05T13:47:18.051Z,4.63
2018-02-05T13:49:48.863Z,4.17
2018-02-05T13:52:16.343Z,3.60
2018-02-05T13:54:43.847Z,10.70
2018-02-05T13:57:12.111Z,6.07
2018-02-05T13:59:39.607Z,5.00
2018-02-05T14:02:07.083Z,3.80
2018-02-05T14:04:34.578Z,3.60
2018-02-05T14:07:02.051Z,3.87
2018-02-05T14:09:29.540Z,3.50
2018-02-05T14:11:57.028Z,3.10
2018-02-05T14:14:24.538Z,3.70
2018-02-05T14:16:52.803Z,4.50
2018-02-05T14:19:20.313Z,4.50
2018-02-05T14:21:47.783Z,3.10
2018-02-05T14:24:15.279Z,3.70
2018-02-05T14:26:42.763Z,4.00
2018-02-05T14:29:10.255Z,12.30
2018-02-05T14:31:37.723Z,5.23
2018-02-05T14:34:05.220Z,5.40
2018-02-05T14:36:33.460Z,4.13
2018-02-05T14:39:00.947Z,4.73
2018-02-05T14:41:28.443Z,4.77
2018-02-05T14:43:55.943Z,4.43
2018-02-05T14:46:23.419Z,4.20
2018-02-05T14:48:50.912Z,4.47
2018-02-05T14:51:18.388Z,4.70
2018-02-05T14:53:45.879Z,3.50
2018-02-05T14:56:13.359Z,3.87
2018-02-05T14:58:41.642Z,4.93
2018-02-05T15:01:09.116Z,4.53
2018-02-05T15:03:37.371Z,4.00
2018-02-05T15:06:04.881Z,5.07
2018-02-05T15:08:33.150Z,4.23
2018-02-05T15:11:00.630Z,4.40
2018-02-05T15:13:28.885Z,4.67
2018-02-05T15:15:56.394Z,4.73
2018-02-05T15:18:24.650Z,4.53
2018-02-05T15:20:52.115Z,5.10
2018-02-05T15:23:19.615Z,4.57
2018-02-05T15:25:47.854Z,5.30
2018-02-05T15:28:15.347Z,5.07
2018-02-05T15:30:42.828Z,4.50
2018-02-05T15:33:10.338Z,15.50
2018-02-05T15:35:38.730Z,6.70
2018-02-05T15:38:06.244Z,4.70
2018-02-05T15:40:33.714Z,5.33
2018-02-05T15:43:02.183Z,5.33
2018-02-05T15:45:29.657Z,6.50
2018-02-05T15:47:57.146Z,5.80
2018-02-05T15:50:24.625Z,5.70
2018-02-05T15:52:52.128Z,5.10
2018-02-05T15:55:19.600Z,5.60
2018-02-05T15:57:47.075Z,6.73
2018-02-05T16:00:20.200Z,4.90
2018-02-05T16:02:47.675Z,5.57
2018-02-05T16:05:15.171Z,6.37
2018-02-05T16:07:44.657Z,6.80
2018-02-05T16:10:12.155Z,6.73
2018-02-05T16:12:39.651Z,7.90
2018-02-05T16:15:07.918Z,7.60
2018-02-05T16:17:35.395Z,5.97
2018-02-05T16:20:02.892Z,6.63
2018-02-05T16:22:30.381Z,7.17
2018-02-05T16:24:57.881Z,6.93
2018-02-05T16:27:25.359Z,6.47
2018-02-05T16:29:52.879Z,6.73
2018-02-05T16:32:20.381Z,6.80
2018-02-05T16:34:47.882Z,7.50
2018-02-05T16:37:15.362Z,8.07
2018-02-05T16:39:42.867Z,8.00
2018-02-05T16:42:10.342Z,8.50
2018-02-05T16:44:38.615Z,8.03
2018-02-05T16:47:06.092Z,7.60
2018-02-05T16:49:34.513Z,6.73
2018-02-05T16:52:01.997Z,8.87
2018-02-05T16:54:29.499Z,8.33
2018-02-05T16:56:57.739Z,9.53
2018-02-05T16:59:25.238Z,8.43
2018-02-05T17:01:52.723Z,7.50
2018-02-05T17:04:20.986Z,8.27
2018-02-05T17:06:48.458Z,8.73
2018-02-05T17:09:15.979Z,8.33
2018-02-05T17:11:43.450Z,9.23
2018-02-05T17:14:10.948Z,8.30
2018-02-05T17:16:38.424Z,8.00
2018-02-05T17:19:05.915Z,9.67
2018-02-05T17:21:33.390Z,8.50
2018-02-05T17:24:00.883Z,7.13
2018-02-05T17:26:28.373Z,6.97
2018-02-05T17:28:55.872Z,29.13
2018-02-05T17:31:23.356Z,11.77
2018-02-05T17:33:50.887Z,8.23
2018-02-05T17:36:18.374Z,8.07
2018-02-05T17:38:45.900Z,7.37
2018-02-05T17:41:13.379Z,7.50
2018-02-05T17:43:41.625Z,7.50
2018-02-05T17:46:09.143Z,7.40
2018-02-05T17:48:36.679Z,7.93
2018-02-05T17:51:04.206Z,7.60
2018-02-05T17:53:31.685Z,8.97
2018-02-05T17:55:59.182Z,7.57
2018-02-05T17:58:26.679Z,8.47
2018-02-05T18:00:54.939Z,8.10
2018-02-05T18:03:22.428Z,24.00
2018-02-05T18:05:49.931Z,10.27
2018-02-05T18:08:17.411Z,8.43
2018-02-05T18:10:44.911Z,8.53
2018-02-05T18:13:12.387Z,8.23
2018-02-05T18:15:39.861Z,8.93
2018-02-05T18:18:07.367Z,8.33
2018-02-05T18:20:34.843Z,8.30
2018-02-05T18:23:02.347Z,9.50
2018-02-05T18:25:30.051Z,9.30
2018-02-05T18:27:57.566Z,9.67
2018-02-05T18:30:25.058Z,8.57
2018-02-05T18:32:52.563Z,9.10
2018-02-05T18:35:20.047Z,8.60
2018-02-05T18:37:48.311Z,8.80
2018-02-05T18:40:15.800Z,8.57
2018-02-05T18:42:59.534Z,8.60
2018-02-05T18:45:27.014Z,10.47
2018-02-05T18:47:54.511Z,8.23
2018-02-05T18:50:22.755Z,8.27
2018-02-05T18:52:50.251Z,8.07
2018-02-05T18:55:17.719Z,8.40
2018-02-05T18:57:45.222Z,8.97
2018-02-05T19:00:24.494Z,9.30
2018-02-05T19:02:52.773Z,9.80
2018-02-05T19:05:20.258Z,8.23
2018-02-05T19:07:47.789Z,7.83
2018-02-05T19:10:15.284Z,8.53
2018-02-05T19:12:42.773Z,9.40
2018-02-05T19:15:15.984Z,8.63
2018-02-05T19:17:43.487Z,10.73
2018-02-05T19:20:11.803Z,15.00
2018-02-05T19:22:39.279Z,9.70
2018-02-05T19:25:06.771Z,9.47
2018-02-05T19:27:34.254Z,8.90
2018-02-05T19:30:02.100Z,9.70
2018-02-05T19:32:29.586Z,9.93
2018-02-05T19:37:49.955Z,9.67
2018-02-05T19:40:17.457Z,9.30
2018-02-05T19:42:45.715Z,8.70
2018-02-05T19:45:13.239Z,9.27
2018-02-05T19:47:40.754Z,7.63
2018-02-05T19:50:09.048Z,8.97
2018-02-05T19:52:36.523Z,9.70
2018-02-05T19:55:04.032Z,8.70
2018-02-05T19:57:31.523Z,9.30
2018-02-05T19:59:59.018Z,9.50
2018-02-05T20:02:26.508Z,8.93
2018-02-05T20:04:54.774Z,9.10
2018-02-05T20:07:22.250Z,9.10
2018-02-05T20:09:49.746Z,9.07
2018-02-05T20:12:17.999Z,9.70
2018-02-05T20:14:45.499Z,10.57
2018-02-05T20:17:13.743Z,10.87
2018-02-05T20:19:51.428Z,11.00
2018-02-05T20:22:18.908Z,10.80
2018-02-05T20:24:46.403Z,12.47
2018-02-05T20:27:13.887Z,11.90
2018-02-05T20:29:41.390Z,11.20
2018-02-05T20:32:09.637Z,10.83
2018-02-05T20:34:38.131Z,11.37
2018-02-05T20:37:05.607Z,10.90
2018-02-05T20:39:33.107Z,10.33
2018-02-05T20:42:01.350Z,9.80
2018-02-05T20:44:28.848Z,10.90
2018-02-05T20:46:56.325Z,10.13
2018-02-05T20:49:24.590Z,10.87
2018-02-05T20:51:52.111Z,12.17
2018-02-05T20:54:19.634Z,10.87
2018-02-05T20:56:47.124Z,10.30
2018-02-05T20:59:15.395Z,12.03
2018-02-05T21:01:42.919Z,12.47
2018-02-05T21:04:11.168Z,11.83
2018-02-05T21:06:39.410Z,11.10
2018-02-05T21:09:06.898Z,11.10
2018-02-05T21:11:34.387Z,12.70
2018-02-05T21:14:01.887Z,11.47
2018-02-05T21:16:29.369Z,11.40
2018-02-05T21:18:56.865Z,11.97
2018-02-05T21:21:24.351Z,15.30
2018-02-05T21:23:51.856Z,25.53
2018-02-05T21:26:20.100Z,13.13
2018-02-05T21:28:47.591Z,11.80
2018-02-05T21:31:15.067Z,12.20
2018-02-05T21:33:42.559Z,11.87
2018-02-05T21:36:10.808Z,11.60
2018-02-05T21:38:38.306Z,11.33
2018-02-05T21:41:06.555Z,11.93
2018-02-05T21:43:34.055Z,12.77
2018-02-05T21:46:01.537Z,11.70
2018-02-05T21:48:29.799Z,13.40
2018-02-05T21:50:57.287Z,11.27
2018-02-05T21:53:24.763Z,11.90
2018-02-05T21:55:53.027Z,13.63
2018-02-05T21:58:20.501Z,39.10
2018-02-05T22:00:47.998Z,17.50
2018-02-05T22:03:16.238Z,12.87
2018-02-05T22:05:43.738Z,11.90
2018-02-05T22:08:11.216Z,11.43
2018-02-05T22:10:39.481Z,10.97
2018-02-05T22:13:06.962Z,11.00
2018-02-05T22:15:34.462Z,12.33
2018-02-05T22:18:01.931Z,12.27
2018-02-05T22:20:29.437Z,13.47
2018-02-05T22:22:56.926Z,12.33
2018-02-05T22:25:24.434Z,14.00
2018-02-05T22:27:52.685Z,12.97
2018-02-05T22:30:20.178Z,12.17
2018-02-05T22:32:48.427Z,13.50
2018-02-05T22:35:15.935Z,12.60
2018-02-05T22:37:43.411Z,11.93
2018-02-05T22:40:11.675Z,14.23
2018-02-05T22:42:39.153Z,13.97
2018-02-05T22:45:06.650Z,12.80
2018-02-05T22:47:34.139Z,11.77
2018-02-05T22:50:01.639Z,12.07
2018-02-05T22:52:29.123Z,13.60
2018-02-05T22:54:56.627Z,12.50
2018-02-05T22:57:24.868Z,12.20
2018-02-05T22:59:52.363Z,12.80
2018-02-05T23:02:19.851Z,13.40
2018-02-05T23:04:48.118Z,12.30
2018-02-05T23:07:15.595Z,12.87
2018-02-05T23:09:43.103Z,14.30
2018-02-05T23:12:10.584Z,12.00
2018-02-05T23:14:38.087Z,13.50
2018-02-05T23:17:05.571Z,13.60
2018-02-05T23:19:33.065Z,12.70
2018-02-05T23:22:01.320Z,11.43
2018-02-05T23:24:28.810Z,11.70
2018-02-05T23:26:57.054Z,12.80
2018-02-05T23:29:24.551Z,12.13
2018-02-05T23:31:52.025Z,12.63
2018-02-05T23:34:19.518Z,13.57
2018-02-05T23:36:47.762Z,14.23
2018-02-05T23:39:15.260Z,12.70
2018-02-05T23:41:42.739Z,12.70
2018-02-05T23:44:11.007Z,12.13
2018-02-05T23:46:38.493Z,12.03
2018-02-05T23:49:06.765Z,12.70
2018-02-05T23:51:34.235Z,12.77
2018-02-05T23:54:01.731Z,12.40
2018-02-05T23:56:29.971Z,12.90
2018-02-05T23:58:57.474Z,12.70
